Time;durP1;ratioP1;P1;durP2;ratioP2;P2;SDS_P1;SDS_P2;PMS_P1;PMS_P2;Temp;Humidity;BMP_temperature;BMP_pressure;BME280_temperature;BME280_humidity;BME280_pressure;Samples;Min_cycle;Max_cycle;Signal;HPM_P1;HPM_P2
2021/07/15 00:00:13;;;;;;;0.00;0.00;;;;;;;;;;5141522;27;20201;-63
2021/07/15 00:02:41;;;;;;;0.00;0.00;;;;;;;;;;5140490;27;20206;-62
2021/07/15 00:05:09;;;;;;;0.10;0.10;;;;;;;;;;5135285;27;20289;-63
2021/07/15 00:07:35;;;;;;;0.00;0.00;;;;;;;;;;5141899;27;20198;-63
2021/07/15 00:10:01;;;;;;;0.00;0.00;;;;;;;;;;5133860;27;20360;-65
2021/07/15 00:12:28;;;;;;;0.00;0.00;;;;;;;;;;5129532;27;20374;-63
2021/07/15 00:14:54;;;;;;;0.00;0.00;;;;;;;;;;5131469;27;20368;-63
2021/07/15 00:17:20;;;;;;;0.30;0.30;;;;;;;;;;5144095;27;20201;-63
2021/07/15 00:19:48;;;;;;;0.00;0.00;;;;;;;;;;5130742;27;20202;-62
2021/07/15 00:22:14;;;;;;;0.00;0.00;;;;;;;;;;5133056;27;20213;-63
2021/07/15 00:24:40;;;;;;;0.00;0.00;;;;;;;;;;5141818;27;20278;-63
2021/07/15 00:27:06;;;;;;;0.10;0.10;;;;;;;;;;5138637;27;20205;-63
2021/07/15 00:29:33;;;;;;;0.00;0.00;;;;;;;;;;5124160;28;20206;-63
2021/07/15 00:31:59;;;;;;;0.00;0.00;;;;;;;;;;5123922;28;20214;-63
2021/07/15 00:34:25;;;;;;;0.00;0.00;;;;;;;;;;5124046;28;20198;-63
2021/07/15 00:36:53;;;;;;;0.00;0.00;;;;;;;;;;5125609;27;20202;-62
2021/07/15 00:39:19;;;;;;;0.10;0.10;;;;;;;;;;5144464;27;20250;-62
2021/07/15 00:41:45;;;;;;;0.00;0.00;;;;;;;;;;5144074;27;20534;-63
2021/07/15 00:44:12;;;;;;;0.00;0.00;;;;;;;;;;5126453;27;20248;-62
2021/07/15 00:46:38;;;;;;;0.00;0.00;;;;;;;;;;5135429;27;20281;-62
2021/07/15 00:49:04;;;;;;;0.00;0.00;;;;;;;;;;5124434;27;20212;-63
2021/07/15 00:51:31;;;;;;;0.00;0.00;;;;;;;;;;5134597;27;20213;-62
2021/07/15 00:53:59;;;;;;;0.10;0.10;;;;;;;;;;5143927;27;20209;-64
2021/07/15 00:56:26;;;;;;;0.00;0.00;;;;;;;;;;5144200;27;20242;-64
2021/07/15 00:58:52;;;;;;;0.00;0.00;;;;;;;;;;5125652;27;20418;-64
2021/07/15 01:01:19;;;;;;;0.00;0.00;;;;;;;;;;5130815;27;20437;-64
2021/07/15 01:03:45;;;;;;;0.00;0.00;;;;;;;;;;5138516;27;20201;-66
2021/07/15 01:06:11;;;;;;;0.00;0.00;;;;;;;;;;5140332;27;20375;-64
2021/07/15 01:08:38;;;;;;;0.00;0.00;;;;;;;;;;5140467;27;20242;-65
2021/07/15 01:11:11;;;;;;;0.00;0.00;;;;;;;;;;5129765;27;20479;-63
2021/07/15 01:13:41;;;;;;;0.00;0.00;;;;;;;;;;5143752;27;20197;-65
2021/07/15 01:16:12;;;;;;;0.00;0.00;;;;;;;;;;5126196;27;20197;-64
2021/07/15 01:18:44;;;;;;;0.00;0.00;;;;;;;;;;5140961;27;20510;-65
2021/07/15 01:21:27;;;;;;;0.00;0.00;;;;;;;;;;5140707;27;20272;-62
2021/07/15 01:24:06;;;;;;;0.00;0.00;;;;;;;;;;5143217;27;20194;-64
2021/07/15 01:26:45;;;;;;;0.00;0.00;;;;;;;;;;5138336;27;20405;-62
2021/07/15 01:29:17;;;;;;;0.10;0.10;;;;;;;;;;5143536;27;20268;-63
2021/07/15 01:31:46;;;;;;;0.00;0.00;;;;;;;;;;5143276;27;20217;-62
2021/07/15 01:34:13;;;;;;;0.00;0.00;;;;;;;;;;5143457;28;20525;-62
2021/07/15 01:36:41;;;;;;;0.00;0.00;;;;;;;;;;5143282;28;20382;-65
2021/07/15 01:39:09;;;;;;;0.00;0.00;;;;;;;;;;5143411;28;20207;-63
2021/07/15 01:41:38;;;;;;;0.00;0.00;;;;;;;;;;5143547;28;20201;-62
2021/07/15 01:44:06;;;;;;;0.00;0.00;;;;;;;;;;5137579;28;20398;-63
2021/07/15 01:46:34;;;;;;;0.00;0.00;;;;;;;;;;5134909;28;20225;-63
2021/07/15 01:49:03;;;;;;;0.00;0.00;;;;;;;;;;5128723;28;20201;-62
2021/07/15 01:51:29;;;;;;;0.00;0.00;;;;;;;;;;5132601;28;20205;-63
2021/07/15 01:53:56;;;;;;;0.00;0.00;;;;;;;;;;5139774;28;20415;-65
2021/07/15 01:56:22;;;;;;;0.00;0.00;;;;;;;;;;5142874;28;20201;-63
2021/07/15 01:58:50;;;;;;;0.00;0.00;;;;;;;;;;5128550;28;20226;-64
2021/07/15 02:01:17;;;;;;;0.00;0.00;;;;;;;;;;5143165;28;20197;-63
2021/07/15 02:03:45;;;;;;;0.00;0.00;;;;;;;;;;5143222;28;20216;-63
2021/07/15 02:06:13;;;;;;;0.00;0.00;;;;;;;;;;5142831;28;20278;-63
2021/07/15 02:08:40;;;;;;;0.00;0.00;;;;;;;;;;5143232;28;20201;-63
2021/07/15 02:11:07;;;;;;;0.10;0.10;;;;;;;;;;5128762;28;20198;-63
2021/07/15 02:13:33;;;;;;;0.00;0.00;;;;;;;;;;5132548;28;20225;-63
2021/07/15 02:16:00;;;;;;;0.00;0.00;;;;;;;;;;5138814;28;20198;-64
2021/07/15 02:18:27;;;;;;;0.00;0.00;;;;;;;;;;5143173;28;20197;-64
2021/07/15 02:20:54;;;;;;;0.00;0.00;;;;;;;;;;5142395;28;20534;-64
2021/07/15 02:23:22;;;;;;;0.08;0.08;;;;;;;;;;5129538;28;20260;-64
2021/07/15 02:25:49;;;;;;;0.00;0.00;;;;;;;;;;5141709;28;20232;-63
2021/07/15 02:28:16;;;;;;;0.00;0.00;;;;;;;;;;5125545;28;20206;-63
2021/07/15 02:30:44;;;;;;;0.00;0.00;;;;;;;;;;5137879;28;20261;-63
2021/07/15 02:33:12;;;;;;;0.00;0.00;;;;;;;;;;5125358;28;20248;-63
2021/07/15 02:35:40;;;;;;;0.00;0.00;;;;;;;;;;5124247;28;20205;-63
2021/07/15 02:38:07;;;;;;;0.00;0.00;;;;;;;;;;5134518;28;20247;-63
2021/07/15 02:40:35;;;;;;;0.10;0.10;;;;;;;;;;5140154;27;20368;-63
2021/07/15 02:43:01;;;;;;;0.00;0.00;;;;;;;;;;5132703;27;20236;-63
2021/07/15 02:45:27;;;;;;;0.10;0.10;;;;;;;;;;5133831;27;20340;-63
2021/07/15 02:47:54;;;;;;;0.00;0.00;;;;;;;;;;5125704;28;20224;-63
2021/07/15 02:50:21;;;;;;;0.00;0.00;;;;;;;;;;5125668;28;20271;-62
2021/07/15 02:52:48;;;;;;;0.00;0.00;;;;;;;;;;5143317;27;20420;-64
2021/07/15 02:55:14;;;;;;;0.00;0.00;;;;;;;;;;5136724;27;20262;-64
2021/07/15 02:57:46;;;;;;;0.00;0.00;;;;;;;;;;5125477;28;20226;-64
2021/07/15 03:00:14;;;;;;;0.00;0.00;;;;;;;;;;5130857;27;20198;-64
2021/07/15 03:02:46;;;;;;;0.03;0.03;;;;;;;;;;5125770;28;20206;-64
2021/07/15 03:05:13;;;;;;;0.00;0.00;;;;;;;;;;5125381;28;20222;-65
2021/07/15 03:07:45;;;;;;;0.00;0.00;;;;;;;;;;5138415;27;20250;-64
2021/07/15 03:10:11;;;;;;;0.00;0.00;;;;;;;;;;5125822;27;20489;-64
2021/07/15 03:12:40;;;;;;;0.00;0.00;;;;;;;;;;5125221;28;20510;-64
2021/07/15 03:15:09;;;;;;;0.00;0.00;;;;;;;;;;5125236;28;20246;-64
2021/07/15 03:17:37;;;;;;;0.00;0.00;;;;;;;;;;5125314;28;20251;-64
2021/07/15 03:20:07;;;;;;;0.00;0.00;;;;;;;;;;5142676;27;20215;-64
2021/07/15 03:22:34;;;;;;;0.00;0.00;;;;;;;;;;5126417;27;20228;-65
2021/07/15 03:25:01;;;;;;;0.00;0.00;;;;;;;;;;5132827;27;20225;-65
2021/07/15 03:27:30;;;;;;;0.00;0.00;;;;;;;;;;5134323;27;20209;-64
2021/07/15 03:29:57;;;;;;;0.00;0.00;;;;;;;;;;5138321;27;20200;-65
2021/07/15 03:32:25;;;;;;;0.03;0.03;;;;;;;;;;5144487;27;20404;-64
2021/07/15 03:34:52;;;;;;;0.00;0.00;;;;;;;;;;5139959;27;20220;-64
2021/07/15 03:37:19;;;;;;;0.00;0.00;;;;;;;;;;5140188;27;20197;-64
2021/07/15 03:39:46;;;;;;;0.00;0.00;;;;;;;;;;5128354;27;20251;-64
2021/07/15 03:42:13;;;;;;;0.00;0.00;;;;;;;;;;5127887;27;20473;-64
2021/07/15 03:44:39;;;;;;;0.00;0.00;;;;;;;;;;5133265;27;20202;-65
2021/07/15 03:47:06;;;;;;;0.00;0.00;;;;;;;;;;5124738;27;20218;-64
2021/07/15 03:49:34;;;;;;;0.00;0.00;;;;;;;;;;5130820;27;20198;-64
2021/07/15 03:52:01;;;;;;;0.00;0.00;;;;;;;;;;5140098;27;20205;-65
2021/07/15 03:54:28;;;;;;;0.00;0.00;;;;;;;;;;5143483;27;20331;-64
2021/07/15 03:56:55;;;;;;;0.00;0.00;;;;;;;;;;5142320;27;20194;-65
2021/07/15 03:59:21;;;;;;;0.00;0.00;;;;;;;;;;5135442;27;20198;-64
2021/07/15 04:01:52;;;;;;;0.00;0.00;;;;;;;;;;5139979;27;20201;-65
2021/07/15 04:04:18;;;;;;;0.00;0.00;;;;;;;;;;5135152;27;20195;-64
2021/07/15 04:06:45;;;;;;;0.00;0.00;;;;;;;;;;5135326;27;20408;-64
2021/07/15 04:09:12;;;;;;;0.08;0.08;;;;;;;;;;5132691;27;20197;-65
2021/07/15 04:11:42;;;;;;;0.00;0.00;;;;;;;;;;5136228;27;20197;-64
2021/07/15 04:14:15;;;;;;;0.00;0.00;;;;;;;;;;5139692;27;20201;-65
2021/07/15 04:16:45;;;;;;;0.00;0.00;;;;;;;;;;5128372;27;20434;-64
2021/07/15 04:19:12;;;;;;;0.00;0.00;;;;;;;;;;5137894;27;20213;-64
2021/07/15 04:21:39;;;;;;;0.00;0.00;;;;;;;;;;5132864;27;20251;-65
2021/07/15 04:24:08;;;;;;;0.10;0.10;;;;;;;;;;5129245;27;20214;-65
2021/07/15 04:26:36;;;;;;;0.00;0.00;;;;;;;;;;5134232;27;20232;-64
2021/07/15 04:29:03;;;;;;;0.00;0.00;;;;;;;;;;5135926;27;20246;-64
2021/07/15 04:31:33;;;;;;;0.00;0.00;;;;;;;;;;5133948;27;20216;-64
2021/07/15 04:34:00;;;;;;;0.00;0.00;;;;;;;;;;5138304;27;20205;-64
2021/07/15 04:36:29;;;;;;;0.00;0.00;;;;;;;;;;5137816;27;20205;-65
2021/07/15 04:38:55;;;;;;;0.00;0.00;;;;;;;;;;5134342;27;20205;-64
2021/07/15 04:41:25;;;;;;;0.00;0.00;;;;;;;;;;5132221;27;20210;-63
2021/07/15 04:43:52;;;;;;;0.05;0.05;;;;;;;;;;5130428;27;20201;-64
2021/07/15 04:46:19;;;;;;;0.00;0.00;;;;;;;;;;5128035;27;20447;-64
2021/07/15 04:48:46;;;;;;;0.00;0.00;;;;;;;;;;5143113;27;20204;-65
2021/07/15 04:51:14;;;;;;;0.00;0.00;;;;;;;;;;5132581;27;20473;-65
2021/07/15 04:53:40;;;;;;;0.00;0.00;;;;;;;;;;5129641;27;20201;-64
2021/07/15 04:56:07;;;;;;;0.00;0.00;;;;;;;;;;5127672;27;20201;-65
2021/07/15 04:58:34;;;;;;;0.10;0.10;;;;;;;;;;5132394;27;20503;-63
2021/07/15 05:01:01;;;;;;;0.00;0.00;;;;;;;;;;5131280;27;20292;-64
2021/07/15 05:03:29;;;;;;;0.00;0.00;;;;;;;;;;5127369;28;20457;-64
2021/07/15 05:05:56;;;;;;;0.00;0.00;;;;;;;;;;5131953;27;20248;-63
2021/07/15 05:08:22;;;;;;;0.00;0.00;;;;;;;;;;5135351;27;20240;-63
2021/07/15 05:10:48;;;;;;;0.10;0.10;;;;;;;;;;5130873;27;20259;-64
2021/07/15 05:13:15;;;;;;;0.00;0.00;;;;;;;;;;5137018;27;20468;-64
2021/07/15 05:15:43;;;;;;;0.00;0.00;;;;;;;;;;5128778;27;20205;-64
2021/07/15 05:18:09;;;;;;;0.00;0.00;;;;;;;;;;5137115;27;20242;-64
2021/07/15 05:20:35;;;;;;;0.00;0.00;;;;;;;;;;5136504;27;20380;-63
2021/07/15 05:23:01;;;;;;;2.92;2.83;;;;;;;;;;5140807;27;20198;-63
2021/07/15 05:25:27;;;;;;;0.00;0.00;;;;;;;;;;5122668;28;20225;-63
2021/07/15 05:27:54;;;;;;;0.00;0.00;;;;;;;;;;5122846;28;20202;-64
2021/07/15 05:30:20;;;;;;;0.00;0.00;;;;;;;;;;5136912;27;20219;-63
2021/07/15 05:32:48;;;;;;;0.05;0.05;;;;;;;;;;5130188;27;20251;-64
2021/07/15 05:35:14;;;;;;;0.10;0.10;;;;;;;;;;5128103;28;20384;-63
2021/07/15 05:37:42;;;;;;;0.00;0.00;;;;;;;;;;5136372;28;20539;-64
2021/07/15 05:40:09;;;;;;;0.00;0.00;;;;;;;;;;5123115;28;20202;-64
2021/07/15 05:42:36;;;;;;;0.00;0.00;;;;;;;;;;5128430;28;20201;-64
2021/07/15 05:45:02;;;;;;;0.00;0.00;;;;;;;;;;5143539;28;20239;-63
2021/07/15 05:47:28;;;;;;;0.00;0.00;;;;;;;;;;5141965;28;20209;-64
2021/07/15 05:49:56;;;;;;;0.10;0.10;;;;;;;;;;5142990;28;20205;-63
2021/07/15 05:52:22;;;;;;;0.00;0.00;;;;;;;;;;5126870;28;20209;-63
2021/07/15 05:54:50;;;;;;;0.00;0.00;;;;;;;;;;5130786;28;20359;-64
2021/07/15 05:57:19;;;;;;;0.00;0.00;;;;;;;;;;5143130;28;20409;-64
2021/07/15 05:59:45;;;;;;;0.10;0.10;;;;;;;;;;5130015;28;20205;-63
2021/07/15 06:02:12;;;;;;;0.00;0.00;;;;;;;;;;5134908;27;20221;-64
2021/07/15 06:04:39;;;;;;;0.00;0.00;;;;;;;;;;5127762;28;20216;-64
2021/07/15 06:07:06;;;;;;;0.00;0.00;;;;;;;;;;5128897;27;20263;-63
2021/07/15 06:09:32;;;;;;;0.00;0.00;;;;;;;;;;5128328;27;20212;-64
2021/07/15 06:11:59;;;;;;;0.00;0.00;;;;;;;;;;5130979;28;20201;-63
2021/07/15 06:14:25;;;;;;;0.00;0.00;;;;;;;;;;5136946;27;20201;-63
2021/07/15 06:16:51;;;;;;;0.10;0.10;;;;;;;;;;5138324;27;20254;-64
2021/07/15 06:19:18;;;;;;;0.00;0.00;;;;;;;;;;5145364;27;20434;-64
2021/07/15 06:21:45;;;;;;;0.00;0.00;;;;;;;;;;5142671;27;20206;-65
2021/07/15 06:24:12;;;;;;;0.00;0.00;;;;;;;;;;5142491;27;20484;-64
2021/07/15 06:26:39;;;;;;;0.00;0.00;;;;;;;;;;5131479;27;20221;-65
2021/07/15 06:29:05;;;;;;;0.00;0.00;;;;;;;;;;5136699;27;20245;-65
2021/07/15 06:31:32;;;;;;;0.00;0.00;;;;;;;;;;5143487;27;20235;-65
2021/07/15 06:33:59;;;;;;;0.00;0.00;;;;;;;;;;5133798;27;20202;-64
2021/07/15 06:36:26;;;;;;;0.00;0.00;;;;;;;;;;5146961;27;20193;-63
2021/07/15 06:38:55;;;;;;;0.00;0.00;;;;;;;;;;5134037;27;20494;-64
2021/07/15 06:41:23;;;;;;;0.00;0.00;;;;;;;;;;5147243;27;20475;-63
2021/07/15 06:43:49;;;;;;;8.90;8.30;;;;;;;;;;5145114;27;20208;-63
2021/07/15 06:46:15;;;;;;;0.00;0.00;;;;;;;;;;5133258;27;20225;-64
2021/07/15 06:48:42;;;;;;;0.00;0.00;;;;;;;;;;5146923;27;20198;-64
2021/07/15 06:51:08;;;;;;;0.00;0.00;;;;;;;;;;5132009;27;20208;-65
2021/07/15 06:53:34;;;;;;;0.00;0.00;;;;;;;;;;5146549;27;20252;-65
2021/07/15 06:56:01;;;;;;;0.00;0.00;;;;;;;;;;5131890;27;20209;-65
2021/07/15 06:58:28;;;;;;;0.00;0.00;;;;;;;;;;5135203;27;20504;-65
2021/07/15 07:00:55;;;;;;;0.00;0.00;;;;;;;;;;5138817;27;20263;-66
2021/07/15 07:03:21;;;;;;;0.00;0.00;;;;;;;;;;5139528;27;20204;-66
2021/07/15 07:05:49;;;;;;;0.00;0.00;;;;;;;;;;5136772;27;20212;-66
2021/07/15 07:08:15;;;;;;;0.00;0.00;;;;;;;;;;5133302;27;20263;-65
2021/07/15 07:10:42;;;;;;;0.00;0.00;;;;;;;;;;5127211;27;20206;-66
2021/07/15 07:13:08;;;;;;;0.00;0.00;;;;;;;;;;5125704;28;20202;-65
2021/07/15 07:15:35;;;;;;;0.52;0.52;;;;;;;;;;5144070;27;20243;-66
2021/07/15 07:18:02;;;;;;;0.00;0.00;;;;;;;;;;5137640;27;20194;-66
2021/07/15 07:20:28;;;;;;;0.00;0.00;;;;;;;;;;5136787;27;20289;-66
2021/07/15 07:22:54;;;;;;;0.00;0.00;;;;;;;;;;5142192;27;20202;-66
2021/07/15 07:25:20;;;;;;;0.00;0.00;;;;;;;;;;5142540;27;20429;-65
2021/07/15 07:27:47;;;;;;;0.00;0.00;;;;;;;;;;5144576;27;20237;-65
2021/07/15 07:30:15;;;;;;;0.00;0.00;;;;;;;;;;5138056;27;20266;-65
2021/07/15 07:32:43;;;;;;;0.00;0.00;;;;;;;;;;5139410;27;20206;-66
2021/07/15 07:35:10;;;;;;;0.00;0.00;;;;;;;;;;5139178;27;20505;-67
2021/07/15 07:37:36;;;;;;;0.08;0.08;;;;;;;;;;5132070;27;20240;-66
2021/07/15 07:40:03;;;;;;;0.00;0.00;;;;;;;;;;5145734;27;20201;-66
2021/07/15 07:42:29;;;;;;;0.00;0.00;;;;;;;;;;5144400;27;20234;-66
2021/07/15 07:44:56;;;;;;;0.00;0.00;;;;;;;;;;5144183;27;20251;-66
2021/07/15 07:47:22;;;;;;;0.00;0.00;;;;;;;;;;5135125;27;20217;-66
2021/07/15 07:49:50;;;;;;;0.00;0.00;;;;;;;;;;5136453;27;20209;-64
2021/07/15 07:52:16;;;;;;;0.00;0.00;;;;;;;;;;5129658;27;20416;-64
2021/07/15 07:54:42;;;;;;;0.00;0.00;;;;;;;;;;5145079;27;20458;-65
2021/07/15 07:57:09;;;;;;;0.10;0.10;;;;;;;;;;5145058;27;20246;-64
2021/07/15 07:59:36;;;;;;;0.00;0.00;;;;;;;;;;5139869;27;20273;-63
2021/07/15 08:02:02;;;;;;;0.00;0.00;;;;;;;;;;5133478;27;20198;-63
2021/07/15 08:04:28;;;;;;;0.00;0.00;;;;;;;;;;5142303;27;20201;-65
2021/07/15 08:06:56;;;;;;;0.10;0.10;;;;;;;;;;5137950;27;20221;-65
2021/07/15 08:09:24;;;;;;;0.00;0.00;;;;;;;;;;5137665;27;20366;-65
2021/07/15 08:11:53;;;;;;;0.00;0.00;;;;;;;;;;5137423;27;20228;-65
2021/07/15 08:14:19;;;;;;;0.00;0.00;;;;;;;;;;5145285;27;20201;-65
2021/07/15 08:16:46;;;;;;;0.00;0.00;;;;;;;;;;5135052;27;20194;-65
2021/07/15 08:19:13;;;;;;;0.00;0.00;;;;;;;;;;5144755;27;20205;-66
2021/07/15 08:21:39;;;;;;;0.00;0.00;;;;;;;;;;5134764;27;20280;-64
2021/07/15 08:24:07;;;;;;;0.03;0.03;;;;;;;;;;5124306;28;20202;-65
2021/07/15 08:26:33;;;;;;;0.00;0.00;;;;;;;;;;5130910;27;20225;-64
2021/07/15 08:28:59;;;;;;;0.00;0.00;;;;;;;;;;5137800;27;20213;-65
2021/07/15 08:31:26;;;;;;;0.00;0.00;;;;;;;;;;5139316;27;20214;-65
2021/07/15 08:33:53;;;;;;;0.00;0.00;;;;;;;;;;5138599;27;20239;-64
2021/07/15 08:36:19;;;;;;;0.00;0.00;;;;;;;;;;5126888;27;20251;-64
2021/07/15 08:38:46;;;;;;;0.65;0.40;;;;;;;;;;5138643;27;20286;-65
2021/07/15 08:41:13;;;;;;;0.00;0.00;;;;;;;;;;5135834;27;20273;-65
2021/07/15 08:43:40;;;;;;;0.00;0.00;;;;;;;;;;5128353;27;20230;-66
2021/07/15 08:46:06;;;;;;;0.00;0.00;;;;;;;;;;5132818;27;20201;-65
2021/07/15 08:48:34;;;;;;;0.08;0.08;;;;;;;;;;5142646;27;20532;-65
2021/07/15 08:51:00;;;;;;;0.00;0.00;;;;;;;;;;5136059;27;20273;-66
2021/07/15 08:53:30;;;;;;;0.00;0.00;;;;;;;;;;5143263;27;20217;-64
2021/07/15 08:58:57;;;;;;;0.00;0.00;;;;;;;;;;5073518;28;20502;-65
2021/07/15 09:01:23;;;;;;;0.00;0.00;;;;;;;;;;5070748;28;20203;-65
2021/07/15 09:03:49;;;;;;;0.00;0.00;;;;;;;;;;5093810;28;20214;-65
2021/07/15 09:06:15;;;;;;;0.00;0.00;;;;;;;;;;5127712;27;20197;-64
2021/07/15 09:08:42;;;;;;;0.00;0.00;;;;;;;;;;5134778;27;20271;-64
2021/07/15 09:11:08;;;;;;;0.00;0.00;;;;;;;;;;5123843;28;20202;-65
2021/07/15 09:13:34;;;;;;;0.00;0.00;;;;;;;;;;5123261;28;20474;-64
2021/07/15 09:16:09;;;;;;;0.00;0.00;;;;;;;;;;5122791;27;20251;-64
2021/07/15 09:18:49;;;;;;;0.00;0.00;;;;;;;;;;5131222;27;20189;-64
2021/07/15 09:21:21;;;;;;;0.00;0.00;;;;;;;;;;5141577;27;20238;-64
2021/07/15 09:23:47;;;;;;;0.00;0.00;;;;;;;;;;5133770;27;20393;-65
2021/07/15 09:26:14;;;;;;;0.00;0.00;;;;;;;;;;5135559;27;20229;-65
2021/07/15 09:28:40;;;;;;;0.00;0.00;;;;;;;;;;5143163;27;20217;-64
2021/07/15 09:31:15;;;;;;;0.00;0.00;;;;;;;;;;5139263;27;20216;-65
2021/07/15 09:33:41;;;;;;;0.00;0.00;;;;;;;;;;5129624;27;20200;-64
2021/07/15 09:36:11;;;;;;;0.00;0.00;;;;;;;;;;5123091;28;20237;-65
2021/07/15 09:38:39;;;;;;;0.00;0.00;;;;;;;;;;5137088;28;20200;-66
2021/07/15 09:41:05;;;;;;;0.00;0.00;;;;;;;;;;5125798;28;20205;-65
2021/07/15 09:43:33;;;;;;;0.00;0.00;;;;;;;;;;5137688;28;20293;-65
2021/07/15 09:46:01;;;;;;;0.00;0.00;;;;;;;;;;5138283;28;20202;-65
2021/07/15 09:48:29;;;;;;;0.10;0.10;;;;;;;;;;5124747;28;20248;-64
2021/07/15 09:50:56;;;;;;;0.00;0.00;;;;;;;;;;5138548;27;20206;-66
2021/07/15 09:53:23;;;;;;;0.00;0.00;;;;;;;;;;5137320;27;20202;-64
2021/07/15 09:55:58;;;;;;;0.82;0.80;;;;;;;;;;5131056;27;20247;-65
2021/07/15 09:58:24;;;;;;;0.10;0.10;;;;;;;;;;5140951;27;20235;-65
2021/07/15 10:00:51;;;;;;;0.00;0.00;;;;;;;;;;5132165;27;20243;-65
2021/07/15 10:03:17;;;;;;;0.00;0.00;;;;;;;;;;5134605;27;20223;-65
2021/07/15 10:05:52;;;;;;;0.00;0.00;;;;;;;;;;5133263;27;20383;-65
2021/07/15 10:08:23;;;;;;;0.00;0.00;;;;;;;;;;5144216;27;20508;-64
2021/07/15 10:10:50;;;;;;;0.00;0.00;;;;;;;;;;5147430;27;20446;-65
2021/07/15 10:13:17;;;;;;;0.00;0.00;;;;;;;;;;5129205;27;20198;-65
2021/07/15 10:15:44;;;;;;;0.10;0.10;;;;;;;;;;5138787;27;20197;-65
2021/07/15 10:18:10;;;;;;;0.00;0.00;;;;;;;;;;5143185;27;20205;-65
2021/07/15 10:20:37;;;;;;;0.00;0.00;;;;;;;;;;5136732;27;20202;-66
2021/07/15 10:23:05;;;;;;;0.00;0.00;;;;;;;;;;5141511;27;20205;-65
2021/07/15 10:25:31;;;;;;;0.00;0.00;;;;;;;;;;5131521;27;20230;-65
2021/07/15 10:27:58;;;;;;;0.00;0.00;;;;;;;;;;5141370;27;20233;-66
2021/07/15 10:30:24;;;;;;;0.00;0.00;;;;;;;;;;5146687;27;20220;-65
2021/07/15 10:32:53;;;;;;;0.00;0.00;;;;;;;;;;5139479;27;20493;-64
2021/07/15 10:35:22;;;;;;;0.00;0.00;;;;;;;;;;5141043;27;20201;-65
2021/07/15 10:37:49;;;;;;;0.00;0.00;;;;;;;;;;5145671;27;20272;-65
2021/07/15 10:40:17;;;;;;;0.00;0.00;;;;;;;;;;5131826;27;20209;-65
2021/07/15 10:42:44;;;;;;;0.00;0.00;;;;;;;;;;5130112;27;20198;-65
2021/07/15 10:45:12;;;;;;;0.00;0.00;;;;;;;;;;5141171;27;20254;-66
2021/07/15 10:47:39;;;;;;;0.00;0.00;;;;;;;;;;5144400;27;20214;-69
2021/07/15 10:50:07;;;;;;;0.00;0.00;;;;;;;;;;5145486;27;20208;-69
2021/07/15 10:52:35;;;;;;;0.00;0.00;;;;;;;;;;5135033;27;20243;-69
2021/07/15 10:55:02;;;;;;;0.03;0.03;;;;;;;;;;5150798;27;20391;-68
2021/07/15 10:57:29;;;;;;;0.00;0.00;;;;;;;;;;5136340;27;20204;-67
2021/07/15 11:00:20;;;;;;;0.00;0.00;;;;;;;;;;5134284;27;20205;-69
2021/07/15 11:02:46;;;;;;;0.00;0.00;;;;;;;;;;5142307;27;20216;-69
2021/07/15 11:05:24;;;;;;;0.00;0.00;;;;;;;;;;5148917;27;20453;-68
2021/07/15 11:07:50;;;;;;;0.00;0.00;;;;;;;;;;5133237;27;20373;-68
2021/07/15 11:10:17;;;;;;;0.00;0.00;;;;;;;;;;5137288;27;20198;-68
2021/07/15 11:12:55;;;;;;;0.00;0.00;;;;;;;;;;5139253;27;20322;-68
2021/07/15 11:15:21;;;;;;;0.00;0.00;;;;;;;;;;5131037;27;20478;-67
2021/07/15 11:17:50;;;;;;;0.00;0.00;;;;;;;;;;5141089;27;20489;-65
2021/07/15 11:20:18;;;;;;;0.00;0.00;;;;;;;;;;5129544;27;20202;-68
2021/07/15 11:22:46;;;;;;;0.00;0.00;;;;;;;;;;5145510;27;20209;-70
2021/07/15 11:25:14;;;;;;;0.00;0.00;;;;;;;;;;5137992;27;20437;-69
2021/07/15 11:27:41;;;;;;;0.10;0.10;;;;;;;;;;5134978;27;20225;-67
2021/07/15 11:30:11;;;;;;;0.05;0.05;;;;;;;;;;5130265;27;20281;-65
2021/07/15 11:32:38;;;;;;;0.00;0.00;;;;;;;;;;5145681;27;20307;-67
2021/07/15 11:35:20;;;;;;;0.00;0.00;;;;;;;;;;5146054;27;20239;-67
2021/07/15 11:37:51;;;;;;;0.00;0.00;;;;;;;;;;5141521;27;20285;-67
2021/07/15 11:40:41;;;;;;;0.00;0.00;;;;;;;;;;5131462;27;20198;-72
2021/07/15 11:43:14;;;;;;;0.00;0.00;;;;;;;;;;5129908;27;20216;-71
2021/07/15 11:46:01;;;;;;;0.00;0.00;;;;;;;;;;5136018;27;20225;-71
2021/07/15 11:48:46;;;;;;;0.00;0.00;;;;;;;;;;5139441;27;20277;-72
2021/07/15 11:51:29;;;;;;;0.00;0.00;;;;;;;;;;5125047;28;20200;-72
2021/07/15 11:54:14;;;;;;;0.00;0.00;;;;;;;;;;5140585;27;20264;-71
2021/07/15 11:56:41;;;;;;;0.00;0.00;;;;;;;;;;5135718;27;20201;-71
2021/07/15 11:59:07;;;;;;;0.00;0.00;;;;;;;;;;5137690;27;20245;-66
2021/07/15 12:01:36;;;;;;;0.00;0.00;;;;;;;;;;5144370;27;20506;-65
2021/07/15 12:04:03;;;;;;;0.00;0.00;;;;;;;;;;5133599;27;20202;-67
2021/07/15 12:06:30;;;;;;;0.00;0.00;;;;;;;;;;5128587;27;20247;-64
2021/07/15 12:09:01;;;;;;;0.00;0.00;;;;;;;;;;5138514;27;20229;-63
2021/07/15 12:11:28;;;;;;;0.00;0.00;;;;;;;;;;5133243;27;20195;-64
2021/07/15 12:13:54;;;;;;;0.00;0.00;;;;;;;;;;5132960;27;20233;-63
2021/07/15 12:16:21;;;;;;;0.00;0.00;;;;;;;;;;5141841;27;20193;-63
2021/07/15 12:18:50;;;;;;;0.00;0.00;;;;;;;;;;5137737;27;20557;-64
2021/07/15 12:21:17;;;;;;;0.00;0.00;;;;;;;;;;5137164;27;20251;-64
2021/07/15 12:23:44;;;;;;;0.00;0.00;;;;;;;;;;5144744;27;20254;-64
2021/07/15 12:26:12;;;;;;;0.85;0.85;;;;;;;;;;5138434;27;20548;-64
2021/07/15 12:28:44;;;;;;;0.00;0.00;;;;;;;;;;5125207;27;20229;-63
2021/07/15 12:31:12;;;;;;;0.00;0.00;;;;;;;;;;5135600;27;20214;-63
2021/07/15 12:33:39;;;;;;;0.00;0.00;;;;;;;;;;5133845;27;20197;-63
2021/07/15 12:36:11;;;;;;;0.00;0.00;;;;;;;;;;5144415;27;20205;-63
2021/07/15 12:38:37;;;;;;;0.00;0.00;;;;;;;;;;5144337;27;20205;-63
2021/07/15 12:41:05;;;;;;;0.00;0.00;;;;;;;;;;5140390;27;20198;-63
2021/07/15 12:43:38;;;;;;;0.00;0.00;;;;;;;;;;5136975;27;20402;-63
2021/07/15 12:46:08;;;;;;;0.00;0.00;;;;;;;;;;5142013;27;20235;-63
2021/07/15 12:48:39;;;;;;;0.00;0.00;;;;;;;;;;5140973;27;20278;-64
2021/07/15 12:51:05;;;;;;;0.10;0.10;;;;;;;;;;5130218;27;20205;-64
2021/07/15 12:53:37;;;;;;;0.00;0.00;;;;;;;;;;5131239;27;20220;-63
2021/07/15 12:56:04;;;;;;;0.00;0.00;;;;;;;;;;5138208;27;20513;-64
2021/07/15 12:58:30;;;;;;;0.00;0.00;;;;;;;;;;5132401;27;20266;-65
2021/07/15 13:01:00;;;;;;;0.00;0.00;;;;;;;;;;5128016;27;20219;-64
2021/07/15 13:03:26;;;;;;;0.00;0.00;;;;;;;;;;5143545;27;20204;-65
2021/07/15 13:05:53;;;;;;;0.00;0.00;;;;;;;;;;5131188;27;20202;-64
2021/07/15 13:08:24;;;;;;;0.00;0.00;;;;;;;;;;5138994;27;20227;-64
2021/07/15 13:16:25;;;;;;;0.00;0.00;;;;;;;;;;5136520;27;20220;-65
2021/07/15 13:18:51;;;;;;;0.00;0.00;;;;;;;;;;5142215;27;20206;-65
2021/07/15 13:21:27;;;;;;;0.00;0.00;;;;;;;;;;5138506;27;20204;-65
2021/07/15 13:24:01;;;;;;;0.00;0.00;;;;;;;;;;5141727;27;20200;-65
2021/07/15 13:26:28;;;;;;;0.00;0.00;;;;;;;;;;5134682;27;20224;-65
2021/07/15 13:28:55;;;;;;;0.00;0.00;;;;;;;;;;5135158;28;20244;-65
2021/07/15 13:31:22;;;;;;;0.00;0.00;;;;;;;;;;5133640;27;20497;-65
2021/07/15 13:34:06;;;;;;;0.00;0.00;;;;;;;;;;5116681;27;20582;-64
2021/07/15 13:36:32;;;;;;;0.00;0.00;;;;;;;;;;5120615;28;20195;-64
2021/07/15 13:38:59;;;;;;;0.00;0.00;;;;;;;;;;5112295;28;20293;-64
2021/07/15 13:41:27;;;;;;;0.00;0.00;;;;;;;;;;5114695;28;20241;-66
2021/07/15 13:44:03;;;;;;;0.00;0.00;;;;;;;;;;5118503;28;20233;-65
2021/07/15 13:46:30;;;;;;;0.00;0.00;;;;;;;;;;5117639;28;20198;-65
2021/07/15 13:48:56;;;;;;;0.57;0.57;;;;;;;;;;5115355;28;20203;-65
2021/07/15 13:51:25;;;;;;;0.00;0.00;;;;;;;;;;5114945;28;20202;-65
2021/07/15 13:53:51;;;;;;;0.00;0.00;;;;;;;;;;5109771;28;20203;-65
2021/07/15 13:56:18;;;;;;;0.00;0.00;;;;;;;;;;5106120;28;20486;-64
2021/07/15 13:58:45;;;;;;;0.00;0.00;;;;;;;;;;5108729;28;20281;-65
2021/07/15 14:01:11;;;;;;;0.00;0.00;;;;;;;;;;5110680;28;20204;-64
2021/07/15 14:03:39;;;;;;;0.00;0.00;;;;;;;;;;5116600;28;20214;-64
2021/07/15 14:06:05;;;;;;;0.10;0.10;;;;;;;;;;5112704;28;20210;-65
2021/07/15 14:08:33;;;;;;;0.00;0.00;;;;;;;;;;5107711;28;20375;-64
2021/07/15 14:11:00;;;;;;;0.00;0.00;;;;;;;;;;5112910;28;20232;-66
2021/07/15 14:13:27;;;;;;;0.00;0.00;;;;;;;;;;5115596;28;20225;-66
2021/07/15 14:15:58;;;;;;;0.00;0.00;;;;;;;;;;5111942;28;20232;-65
2021/07/15 14:18:25;;;;;;;0.00;0.00;;;;;;;;;;5108957;28;20212;-65
2021/07/15 14:20:52;;;;;;;0.00;0.00;;;;;;;;;;5113895;28;20249;-65
2021/07/15 14:23:21;;;;;;;0.00;0.00;;;;;;;;;;5119179;28;20436;-66
2021/07/15 14:25:49;;;;;;;0.00;0.00;;;;;;;;;;5107815;28;20421;-64
2021/07/15 14:28:15;;;;;;;0.00;0.00;;;;;;;;;;5115139;28;20427;-64
2021/07/15 14:30:42;;;;;;;0.00;0.00;;;;;;;;;;5110591;28;20194;-64
2021/07/15 14:33:08;;;;;;;0.00;0.00;;;;;;;;;;5110019;28;20214;-64
2021/07/15 14:35:36;;;;;;;0.00;0.00;;;;;;;;;;5119751;28;20203;-64
2021/07/15 14:38:04;;;;;;;0.00;0.00;;;;;;;;;;5104804;28;20202;-63
2021/07/15 14:40:31;;;;;;;0.00;0.00;;;;;;;;;;5111114;28;20209;-63
2021/07/15 14:43:00;;;;;;;0.00;0.00;;;;;;;;;;5106902;28;20406;-63
2021/07/15 14:45:26;;;;;;;0.00;0.00;;;;;;;;;;5100217;28;20211;-63
2021/07/15 14:47:52;;;;;;;0.00;0.00;;;;;;;;;;5091464;28;20213;-64
2021/07/15 14:50:19;;;;;;;0.00;0.00;;;;;;;;;;5092012;28;20206;-65
2021/07/15 14:52:46;;;;;;;0.00;0.00;;;;;;;;;;5100332;28;20199;-63
2021/07/15 14:55:13;;;;;;;0.00;0.00;;;;;;;;;;5098503;28;20206;-63